createdAt,value
2022-11-12T00:02:12.619Z,68.87
2022-11-12T00:04:59.975Z,69.62
2022-11-12T00:07:46.167Z,69.52
2022-11-12T00:10:33.816Z,68.49
2022-11-12T00:13:47.433Z,68.24
2022-11-12T00:16:34.705Z,68.29
2022-11-12T00:19:20.827Z,68.92
2022-11-12T00:22:07.180Z,68.28
2022-11-12T00:24:53.788Z,67.49
2022-11-12T00:27:40.578Z,67.63
2022-11-12T00:30:27.793Z,67.08
2022-11-12T00:33:14.544Z,67.62
2022-11-12T00:36:00.949Z,65.88
2022-11-12T00:38:47.001Z,65.76
2022-11-12T00:41:33.136Z,65.09
2022-11-12T00:44:19.413Z,65.29
2022-11-12T00:47:26.327Z,65.92
2022-11-12T00:50:12.483Z,65.99
2022-11-12T00:53:00.219Z,65.96
2022-11-12T00:55:46.633Z,65.57
2022-11-12T00:58:35.134Z,66.10
2022-11-12T01:01:21.812Z,66.46
2022-11-12T01:04:08.663Z,66.68
2022-11-12T01:06:55.453Z,67.01
2022-11-12T01:09:41.270Z,67.03
2022-11-12T01:12:27.411Z,67.26
2022-11-12T01:15:13.519Z,67.31
2022-11-12T01:17:59.600Z,68.74
2022-11-12T01:20:46.740Z,69.53
2022-11-12T01:23:38.237Z,69.39
2022-11-12T01:26:25.090Z,67.84
2022-11-12T01:29:12.188Z,67.25
2022-11-12T01:31:58.579Z,67.07
2022-11-12T01:34:45.105Z,67.61
2022-11-12T01:37:33.348Z,66.72
2022-11-12T01:40:21.588Z,67.17
2022-11-12T01:43:14.650Z,67.05
2022-11-12T01:46:04.574Z,65.79
2022-11-12T01:48:54.454Z,65.45
2022-11-12T01:51:45.082Z,65.92
2022-11-12T01:54:31.471Z,66.15
2022-11-12T01:57:20.691Z,65.91
2022-11-12T02:00:11.778Z,65.87
2022-11-12T02:03:03.625Z,65.91
2022-11-12T02:05:53.823Z,65.78
2022-11-12T02:08:42.060Z,65.87
2022-11-12T02:11:27.837Z,66.52
2022-11-12T02:14:14.378Z,66.52
2022-11-12T02:17:01.045Z,65.95
2022-11-12T02:19:47.320Z,66.20
2022-11-12T02:22:34.853Z,65.97
2022-11-12T02:25:23.419Z,65.84
2022-11-12T02:28:10.185Z,65.44
2022-11-12T02:30:55.990Z,65.25
2022-11-12T02:33:42.067Z,65.41
2022-11-12T02:36:29.290Z,65.37
2022-11-12T02:39:16.889Z,65.31
2022-11-12T02:42:03.694Z,65.44
2022-11-12T02:44:50.064Z,65.32
2022-11-12T02:47:37.832Z,64.56
2022-11-12T02:50:23.702Z,65.32
2022-11-12T02:53:10.325Z,64.26
2022-11-12T02:55:58.514Z,64.91
2022-11-12T02:58:44.687Z,64.83
2022-11-12T03:01:31.646Z,64.87
2022-11-12T03:04:18.058Z,64.79
2022-11-12T03:07:04.725Z,65.21
2022-11-12T03:09:51.859Z,64.62
2022-11-12T03:12:38.166Z,64.56
2022-11-12T03:15:24.578Z,64.74
2022-11-12T03:18:12.113Z,64.52
2022-11-12T03:20:58.600Z,64.23
2022-11-12T03:23:45.332Z,65.01
2022-11-12T03:26:35.620Z,65.32
2022-11-12T03:29:22.038Z,65.37
2022-11-12T03:32:08.726Z,64.90
2022-11-12T03:34:55.709Z,64.84
2022-11-12T03:37:44.700Z,65.06
2022-11-12T03:40:34.740Z,65.30
2022-11-12T03:43:22.639Z,65.06
2022-11-12T03:46:08.833Z,64.85
2022-11-12T03:48:55.441Z,65.11
2022-11-12T03:51:41.569Z,65.31
2022-11-12T03:54:27.874Z,65.30
2022-11-12T03:57:14.424Z,65.28
2022-11-12T04:00:00.510Z,64.96
2022-11-12T04:02:46.841Z,64.84
2022-11-12T04:05:52.276Z,64.94
2022-11-12T04:08:39.699Z,64.75
2022-11-12T04:11:25.788Z,65.09
2022-11-12T04:14:11.851Z,64.78
2022-11-12T04:17:16.686Z,64.34
2022-11-12T04:20:21.469Z,64.50
2022-11-12T04:23:07.375Z,64.35
2022-11-12T04:26:11.996Z,64.27
2022-11-12T04:29:18.123Z,64.91
2022-11-12T04:32:04.796Z,64.94
2022-11-12T04:34:51.074Z,64.51
2022-11-12T04:37:47.016Z,64.89
2022-11-12T04:40:52.300Z,64.54
2022-11-12T04:44:20.867Z,64.20
2022-11-12T04:47:07.559Z,64.49
2022-11-12T04:49:54.343Z,64.34
2022-11-12T04:52:40.606Z,64.08
2022-11-12T04:55:30.807Z,64.69
2022-11-12T04:58:18.155Z,64.24
2022-11-12T05:01:05.409Z,64.01
2022-11-12T05:03:51.634Z,63.91
2022-11-12T05:06:53.174Z,64.26
2022-11-12T05:09:40.955Z,64.44
2022-11-12T05:12:28.381Z,64.17
2022-11-12T05:15:15.362Z,64.49
2022-11-12T05:18:02.197Z,64.21
2022-11-12T05:20:52.573Z,64.18
2022-11-12T05:23:40.251Z,63.70
2022-11-12T05:26:28.618Z,64.29
2022-11-12T05:29:18.845Z,63.77
2022-11-12T05:32:07.753Z,64.17
2022-11-12T05:34:54.407Z,63.94
2022-11-12T05:37:40.305Z,63.72
2022-11-12T05:40:26.856Z,63.64
2022-11-12T05:43:13.544Z,63.42
2022-11-12T05:46:01.016Z,63.59
2022-11-12T05:48:48.753Z,64.49
2022-11-12T05:51:36.232Z,63.98
2022-11-12T05:54:25.666Z,63.89
2022-11-12T05:57:12.669Z,63.64
2022-11-12T06:00:07.735Z,63.01
2022-11-12T06:02:43.122Z,64.60
2022-11-12T06:05:33.575Z,64.23
2022-11-12T06:08:20.778Z,64.76
2022-11-12T06:11:12.488Z,64.57
2022-11-12T06:13:58.870Z,63.90
2022-11-12T06:16:47.771Z,64.72
2022-11-12T06:19:37.951Z,64.51
2022-11-12T06:22:24.129Z,64.31
2022-11-12T06:25:10.995Z,64.80
2022-11-12T06:27:59.278Z,64.94
2022-11-12T06:30:49.128Z,65.11
2022-11-12T06:33:42.107Z,65.54
2022-11-12T06:36:32.562Z,65.12
2022-11-12T06:39:21.138Z,65.33
2022-11-12T06:42:09.604Z,65.47
2022-11-12T06:44:56.108Z,65.16
2022-11-12T06:47:43.877Z,65.90
2022-11-12T06:50:31.727Z,65.76
2022-11-12T06:53:19.518Z,65.52
2022-11-12T06:56:11.590Z,65.71
2022-11-12T06:59:06.263Z,65.75
2022-11-12T07:01:56.000Z,65.22
2022-11-12T07:04:44.841Z,65.74
2022-11-12T07:07:34.857Z,65.72
2022-11-12T07:10:23.602Z,65.63
2022-11-12T07:13:14.609Z,65.94
2022-11-12T07:16:04.932Z,65.65
2022-11-12T07:18:56.793Z,64.58
2022-11-12T07:21:45.110Z,65.82
2022-11-12T07:24:33.389Z,66.43
2022-11-12T07:27:22.780Z,65.03
2022-11-12T07:30:14.111Z,66.42
2022-11-12T07:33:01.939Z,66.04
2022-11-12T07:35:49.018Z,66.02
2022-11-12T07:38:44.577Z,65.01
2022-11-12T07:41:32.642Z,65.74
2022-11-12T07:44:21.607Z,66.10
2022-11-12T07:47:09.050Z,65.63
2022-11-12T07:49:56.687Z,66.18
2022-11-12T07:52:49.528Z,66.93
2022-11-12T07:55:38.094Z,67.22
2022-11-12T07:58:39.610Z,67.41
2022-11-12T08:01:26.328Z,67.51
2022-11-12T08:04:22.790Z,68.04
2022-11-12T08:07:12.563Z,67.80
2022-11-12T08:10:08.670Z,68.50
2022-11-12T08:13:01.620Z,68.02
2022-11-12T08:15:52.214Z,66.79
2022-11-12T08:18:42.885Z,66.65
2022-11-12T08:21:35.051Z,65.20
2022-11-12T08:27:22.706Z,65.01
2022-11-12T08:30:16.744Z,67.14
2022-11-12T08:33:07.437Z,66.57
2022-11-12T08:36:06.800Z,66.51
2022-11-12T08:38:55.685Z,66.75
2022-11-12T08:41:42.747Z,66.83
2022-11-12T08:44:30.809Z,65.25
2022-11-12T08:47:18.767Z,65.32
2022-11-12T08:50:06.434Z,65.26
2022-11-12T08:52:54.732Z,65.60
2022-11-12T08:55:41.544Z,66.43
2022-11-12T09:04:30.936Z,64.05
2022-11-12T09:07:48.123Z,64.21
2022-11-12T09:10:44.908Z,64.53
2022-11-12T09:13:18.607Z,65.70
2022-11-12T09:16:08.604Z,64.34
2022-11-12T09:19:07.580Z,63.24
2022-11-12T09:21:58.640Z,63.66
2022-11-12T09:24:40.942Z,63.53
2022-11-12T09:27:29.653Z,62.98
2022-11-12T09:30:16.601Z,63.94
2022-11-12T09:32:59.884Z,64.56
2022-11-12T09:36:47.690Z,64.53
2022-11-12T09:39:46.062Z,64.01
2022-11-12T09:47:40.638Z,64.22
2022-11-12T09:50:34.316Z,64.16
2022-11-12T09:53:44.491Z,64.12
2022-11-12T09:56:28.576Z,65.18
2022-11-12T09:59:13.556Z,65.01
2022-11-12T10:02:19.474Z,65.73
2022-11-12T10:05:36.597Z,63.34
2022-11-12T10:08:46.050Z,63.46
2022-11-12T10:12:04.502Z,63.77
2022-11-12T10:15:21.575Z,63.34
2022-11-12T10:18:43.344Z,63.14
2022-11-12T10:21:50.796Z,61.91
2022-11-12T10:24:43.795Z,62.18
2022-11-12T10:27:40.746Z,60.35
2022-11-12T10:30:28.036Z,60.02
2022-11-12T10:33:24.860Z,61.88
2022-11-12T10:36:30.578Z,60.81
2022-11-12T10:39:34.484Z,57.85
2022-11-12T10:42:25.151Z,58.17
2022-11-12T10:45:24.578Z,57.02
2022-11-12T10:48:35.661Z,56.95
2022-11-12T10:51:28.972Z,57.68
2022-11-12T10:54:55.303Z,57.43
2022-11-12T10:57:44.920Z,55.77
2022-11-12T11:00:34.693Z,55.50
2022-11-12T11:03:24.950Z,56.48
2022-11-12T11:09:15.574Z,55.72
2022-11-12T11:12:04.746Z,56.97
2022-11-12T11:15:14.661Z,57.11
2022-11-12T11:18:02.520Z,57.65
2022-11-12T11:21:00.558Z,54.76
2022-11-12T11:24:04.636Z,54.08
2022-11-12T11:26:57.682Z,55.32
2022-11-12T11:29:59.547Z,54.36
2022-11-12T11:32:55.569Z,54.05
2022-11-12T11:36:15.833Z,55.18
2022-11-12T11:39:31.321Z,53.89
2022-11-12T11:42:44.726Z,54.22
2022-11-12T11:52:06.644Z,53.09
2022-11-12T11:55:22.687Z,53.04
2022-11-12T11:58:21.505Z,53.32
2022-11-12T12:01:20.298Z,54.07
2022-11-12T12:04:14.813Z,53.81
2022-11-12T12:07:28.505Z,52.35
2022-11-12T12:13:29.153Z,53.99
2022-11-12T12:16:25.643Z,52.10
2022-11-12T12:19:45.950Z,51.96
2022-11-12T12:22:40.792Z,50.31
2022-11-12T12:25:37.474Z,50.17
2022-11-12T12:28:22.924Z,51.37
2022-11-12T12:31:18.792Z,53.96
2022-11-12T12:34:40.571Z,51.49
2022-11-12T12:37:52.278Z,53.00
2022-11-12T12:45:40.863Z,52.35
2022-11-12T12:48:41.392Z,54.08
2022-11-12T12:54:39.825Z,55.17
2022-11-12T12:57:45.471Z,53.54
2022-11-12T13:00:40.547Z,53.25
2022-11-12T13:03:46.679Z,54.59
2022-11-12T13:06:50.924Z,54.28
2022-11-12T13:09:41.280Z,53.73
2022-11-12T13:13:04.195Z,53.83
2022-11-12T13:15:50.915Z,53.71
2022-11-12T13:18:40.394Z,53.70
2022-11-12T13:21:26.859Z,52.45
2022-11-12T13:24:14.264Z,53.75
2022-11-12T13:27:07.456Z,53.52
2022-11-12T13:29:55.619Z,55.21
2022-11-12T13:32:59.885Z,53.55
2022-11-12T13:35:48.618Z,53.29
2022-11-12T13:38:43.743Z,53.12
2022-11-12T13:41:58.777Z,53.41
2022-11-12T13:44:56.075Z,53.09
2022-11-12T13:47:44.944Z,53.30
2022-11-12T13:50:21.407Z,53.48
2022-11-12T13:53:10.488Z,53.64
2022-11-12T13:56:07.805Z,52.24
2022-11-12T13:59:20.644Z,52.27
2022-11-12T14:02:29.608Z,51.89
2022-11-12T14:05:19.110Z,52.91
2022-11-12T14:08:42.011Z,53.31
2022-11-12T14:12:06.575Z,52.48
2022-11-12T14:15:05.683Z,52.67
2022-11-12T14:17:50.591Z,52.27
2022-11-12T14:20:41.596Z,52.39
2022-11-12T14:23:30.616Z,54.51
2022-11-12T14:26:39.550Z,54.22
2022-11-12T14:29:31.367Z,53.76
2022-11-12T14:32:25.844Z,54.86
2022-11-12T14:35:32.146Z,54.80
2022-11-12T14:38:27.062Z,54.61
2022-11-12T14:41:20.719Z,55.43
2022-11-12T14:44:17.422Z,54.38
2022-11-12T14:47:05.924Z,53.76
2022-11-12T14:49:55.426Z,54.17
2022-11-12T14:52:49.593Z,54.29
2022-11-12T14:55:40.988Z,53.73
2022-11-12T14:58:30.949Z,53.96
2022-11-12T15:01:55.774Z,53.68
2022-11-12T15:04:50.554Z,54.39
2022-11-12T15:08:04.132Z,54.15
2022-11-12T15:11:30.031Z,54.62
2022-11-12T15:14:23.615Z,54.88
2022-11-12T15:17:27.481Z,55.23
2022-11-12T15:20:19.940Z,55.34
2022-11-12T15:23:16.630Z,55.39
2022-11-12T15:26:11.823Z,56.36
2022-11-12T15:29:25.595Z,56.12
2022-11-12T15:32:15.585Z,56.17
2022-11-12T15:35:07.576Z,56.05
2022-11-12T15:38:07.642Z,55.99
2022-11-12T15:41:01.657Z,55.47
2022-11-12T15:46:42.012Z,55.86
2022-11-12T15:49:30.135Z,55.42
2022-11-12T15:52:18.996Z,56.25
2022-11-12T15:55:22.697Z,56.59
2022-11-12T16:01:08.272Z,56.95
2022-11-12T16:03:55.040Z,57.07
2022-11-12T16:06:45.814Z,57.04
2022-11-12T16:09:43.674Z,57.78
2022-11-12T16:12:33.625Z,58.02
2022-11-12T16:15:29.661Z,57.99
2022-11-12T16:18:20.699Z,57.60
2022-11-12T16:21:20.660Z,58.39
2022-11-12T16:24:12.640Z,58.44
2022-11-12T16:27:02.591Z,57.89
2022-11-12T16:32:44.873Z,57.22
2022-11-12T16:35:39.192Z,57.52
2022-11-12T16:38:27.609Z,58.16
2022-11-12T16:41:14.869Z,57.57
2022-11-12T16:44:05.039Z,57.42
2022-11-12T16:46:40.567Z,57.67
2022-11-12T16:49:38.675Z,58.56
2022-11-12T16:52:20.284Z,59.01
2022-11-12T16:55:00.116Z,59.08
2022-11-12T16:57:53.571Z,59.22
2022-11-12T17:00:50.820Z,59.07
2022-11-12T17:03:42.624Z,59.20
2022-11-12T17:06:39.082Z,59.37
2022-11-12T17:09:27.823Z,59.58
2022-11-12T17:12:09.607Z,59.53
2022-11-12T17:14:59.821Z,59.83
2022-11-12T17:17:58.570Z,59.86
2022-11-12T17:20:51.245Z,59.64
2022-11-12T17:23:38.598Z,59.86
2022-11-12T17:26:19.626Z,59.78
2022-11-12T17:29:08.471Z,60.01
2022-11-12T17:31:55.743Z,61.34
2022-11-12T17:34:57.531Z,60.92
2022-11-12T17:37:51.600Z,61.09
2022-11-12T17:40:39.219Z,61.31
2022-11-12T17:50:37.863Z,60.82
2022-11-12T17:53:31.620Z,61.08
2022-11-12T17:59:02.762Z,59.57
2022-11-12T18:01:49.201Z,59.57
2022-11-12T18:04:36.657Z,60.88
2022-11-12T18:07:22.673Z,60.87
2022-11-12T18:10:14.415Z,60.76
2022-11-12T18:13:02.883Z,60.84
2022-11-12T18:15:49.049Z,60.81
2022-11-12T18:18:35.211Z,61.27
2022-11-12T18:21:21.794Z,61.69
2022-11-12T18:24:13.130Z,61.60
2022-11-12T18:26:59.135Z,61.58
2022-11-12T18:29:46.521Z,61.72
2022-11-12T18:32:32.793Z,61.82
2022-11-12T18:35:19.602Z,61.46
2022-11-12T18:38:05.680Z,61.38
2022-11-12T18:41:03.173Z,61.49
2022-11-12T18:43:49.081Z,61.72
2022-11-12T18:46:35.318Z,62.06
2022-11-12T18:49:21.541Z,61.30
2022-11-12T18:52:07.761Z,62.02
2022-11-12T18:54:53.920Z,62.54
2022-11-12T18:57:40.008Z,62.43
2022-11-12T19:00:26.155Z,61.35
2022-11-12T19:03:12.258Z,61.95
2022-11-12T19:06:02.993Z,62.93
2022-11-12T19:08:51.983Z,63.06
2022-11-12T19:11:40.444Z,63.60
2022-11-12T19:14:28.615Z,63.92
2022-11-12T19:17:34.608Z,63.74
2022-11-12T19:20:40.431Z,63.73
2022-11-12T19:23:29.880Z,63.38
2022-11-12T19:26:18.025Z,63.10
2022-11-12T19:29:04.587Z,63.30
2022-11-12T19:31:51.241Z,63.01
2022-11-12T19:34:57.032Z,63.28
2022-11-12T19:37:43.607Z,63.24
2022-11-12T19:40:29.970Z,63.24
2022-11-12T19:43:16.613Z,63.22
2022-11-12T19:46:08.870Z,63.21
2022-11-12T19:48:55.240Z,63.15
2022-11-12T19:51:42.219Z,63.10
2022-11-12T19:54:29.200Z,62.65
2022-11-12T19:57:15.442Z,62.88
2022-11-12T20:00:21.145Z,63.28
2022-11-12T20:03:07.185Z,63.47
2022-11-12T20:06:06.108Z,63.54
2022-11-12T20:09:08.962Z,63.85
2022-11-12T20:11:55.760Z,63.82
2022-11-12T20:14:41.883Z,63.91
2022-11-12T20:17:28.044Z,63.97
2022-11-12T20:20:14.951Z,64.00
2022-11-12T20:23:01.754Z,64.21
2022-11-12T20:25:51.563Z,63.87
2022-11-12T20:28:38.814Z,63.76
2022-11-12T20:31:25.036Z,63.67
2022-11-12T20:34:12.445Z,63.81
2022-11-12T20:36:58.533Z,63.69
2022-11-12T20:39:44.924Z,63.52
2022-11-12T20:42:30.748Z,63.59
2022-11-12T20:45:16.829Z,63.76
2022-11-12T20:48:03.360Z,63.67
2022-11-12T20:51:16.968Z,63.85
2022-11-12T20:53:59.969Z,63.80
2022-11-12T20:56:49.169Z,63.79
2022-11-12T20:59:41.010Z,63.93
2022-11-12T21:02:27.275Z,63.96
2022-11-12T21:05:13.367Z,63.72
2022-11-12T21:07:59.473Z,63.70
2022-11-12T21:10:49.627Z,63.46
2022-11-12T21:13:36.329Z,63.27
2022-11-12T21:16:22.126Z,63.11
2022-11-12T21:19:08.382Z,63.16
2022-11-12T21:21:54.425Z,62.96
2022-11-12T21:24:40.398Z,63.02
2022-11-12T21:27:26.600Z,62.72
2022-11-12T21:30:12.650Z,62.42
2022-11-12T21:32:59.650Z,62.46
2022-11-12T21:35:52.361Z,62.16
2022-11-12T21:38:38.316Z,62.14
2022-11-12T21:41:26.574Z,62.00
2022-11-12T21:44:12.657Z,61.63
2022-11-12T21:46:58.727Z,61.93
2022-11-12T21:49:44.797Z,62.32
2022-11-12T21:52:30.913Z,62.30
2022-11-12T21:55:17.115Z,62.31
2022-11-12T21:58:03.066Z,62.22
2022-11-12T22:00:49.258Z,62.72
2022-11-12T22:03:35.367Z,62.78
2022-11-12T22:06:24.083Z,62.62
2022-11-12T22:09:09.938Z,62.42
2022-11-12T22:11:56.327Z,62.38
2022-11-12T22:14:44.259Z,62.32
2022-11-12T22:17:33.349Z,62.35
2022-11-12T22:20:19.522Z,62.36
2022-11-12T22:23:05.608Z,62.44
2022-11-12T22:25:52.364Z,62.17
2022-11-12T22:28:38.386Z,62.43
2022-11-12T22:31:29.838Z,62.78
2022-11-12T22:34:16.122Z,62.61
2022-11-12T22:37:02.471Z,62.13
2022-11-12T22:39:48.546Z,62.87
2022-11-12T22:42:35.049Z,62.85
2022-11-12T22:45:21.072Z,62.53
2022-11-12T22:48:07.176Z,62.54
2022-11-12T22:50:58.673Z,62.92
2022-11-12T22:53:44.920Z,63.08
2022-11-12T22:56:34.814Z,63.76
2022-11-12T22:59:22.830Z,63.21
2022-11-12T23:02:09.045Z,63.61
2022-11-12T23:04:55.254Z,63.28
2022-11-12T23:07:41.585Z,63.71
2022-11-12T23:10:28.157Z,63.66
2022-11-12T23:13:14.670Z,63.50
2022-11-12T23:16:02.657Z,63.22
2022-11-12T23:23:12.127Z,62.84
2022-11-12T23:25:54.527Z,63.13
2022-11-12T23:28:36.800Z,63.21
2022-11-12T23:31:25.023Z,63.66
2022-11-12T23:34:07.462Z,64.26
2022-11-12T23:36:49.381Z,63.80
2022-11-12T23:39:31.383Z,63.31
2022-11-12T23:42:13.366Z,62.76
2022-11-12T23:44:55.376Z,63.17
2022-11-12T23:47:37.382Z,62.50
2022-11-12T23:50:21.580Z,63.04
2022-11-12T23:53:03.502Z,63.42
2022-11-12T23:55:45.365Z,63.85
2022-11-12T23:58:27.868Z,63.80
